sensor_id;sensor_type;location;lat;lon;timestamp;P1;durP1;ratioP1;P2;durP2;ratioP2
19812;SDS011;10066;48.108;11.448;2023-07-02T00:02:07;3.13;;;2.20;;
19812;SDS011;10066;48.108;11.448;2023-07-02T00:04:34;2.17;;;1.97;;
19812;SDS011;10066;48.108;11.448;2023-07-02T00:07:02;2.20;;;2.00;;
19812;SDS011;10066;48.108;11.448;2023-07-02T00:09:30;3.60;;;2.10;;
19812;SDS011;10066;48.108;11.448;2023-07-02T00:11:57;2.20;;;1.93;;
19812;SDS011;10066;48.108;11.448;2023-07-02T00:14:24;2.77;;;2.07;;
19812;SDS011;10066;48.108;11.448;2023-07-02T00:16:51;3.90;;;2.57;;
19812;SDS011;10066;48.108;11.448;2023-07-02T00:19:18;2.70;;;2.50;;
19812;SDS011;10066;48.108;11.448;2023-07-02T00:21:45;3.23;;;2.07;;
19812;SDS011;10066;48.108;11.448;2023-07-02T00:24:14;3.13;;;2.20;;
19812;SDS011;10066;48.108;11.448;2023-07-02T00:26:41;3.60;;;1.93;;
19812;SDS011;10066;48.108;11.448;2023-07-02T00:29:08;2.50;;;1.97;;
19812;SDS011;10066;48.108;11.448;2023-07-02T00:31:35;2.43;;;2.03;;
19812;SDS011;10066;48.108;11.448;2023-07-02T00:34:02;2.57;;;2.10;;
19812;SDS011;10066;48.108;11.448;2023-07-02T00:36:30;2.63;;;2.10;;
19812;SDS011;10066;48.108;11.448;2023-07-02T00:38:57;2.07;;;1.87;;
19812;SDS011;10066;48.108;11.448;2023-07-02T00:41:26;3.40;;;2.10;;
19812;SDS011;10066;48.108;11.448;2023-07-02T00:43:53;4.00;;;2.10;;
19812;SDS011;10066;48.108;11.448;2023-07-02T00:46:21;3.07;;;1.90;;
19812;SDS011;10066;48.108;11.448;2023-07-02T00:48:50;2.80;;;2.00;;
19812;SDS011;10066;48.108;11.448;2023-07-02T00:51:20;2.67;;;2.10;;
19812;SDS011;10066;48.108;11.448;2023-07-02T00:53:48;4.23;;;2.10;;
19812;SDS011;10066;48.108;11.448;2023-07-02T00:56:17;2.53;;;2.20;;
19812;SDS011;10066;48.108;11.448;2023-07-02T00:58:46;4.27;;;1.73;;
19812;SDS011;10066;48.108;11.448;2023-07-02T01:01:15;4.37;;;2.23;;
19812;SDS011;10066;48.108;11.448;2023-07-02T01:03:49;2.20;;;1.60;;
19812;SDS011;10066;48.108;11.448;2023-07-02T01:06:19;2.77;;;1.90;;
19812;SDS011;10066;48.108;11.448;2023-07-02T01:08:50;3.53;;;1.87;;
19812;SDS011;10066;48.108;11.448;2023-07-02T01:11:19;3.43;;;1.97;;
19812;SDS011;10066;48.108;11.448;2023-07-02T01:13:48;2.77;;;1.90;;
19812;SDS011;10066;48.108;11.448;2023-07-02T01:16:20;2.20;;;1.67;;
19812;SDS011;10066;48.108;11.448;2023-07-02T01:18:48;3.23;;;1.80;;
19812;SDS011;10066;48.108;11.448;2023-07-02T01:21:20;4.33;;;1.90;;
19812;SDS011;10066;48.108;11.448;2023-07-02T01:23:49;2.43;;;1.63;;
19812;SDS011;10066;48.108;11.448;2023-07-02T01:26:17;3.33;;;1.80;;
19812;SDS011;10066;48.108;11.448;2023-07-02T01:28:44;3.57;;;1.50;;
19812;SDS011;10066;48.108;11.448;2023-07-02T01:31:11;2.57;;;1.57;;
19812;SDS011;10066;48.108;11.448;2023-07-02T01:33:38;2.20;;;1.40;;
19812;SDS011;10066;48.108;11.448;2023-07-02T01:36:05;1.50;;;1.40;;
19812;SDS011;10066;48.108;11.448;2023-07-02T01:38:34;1.47;;;1.33;;
19812;SDS011;10066;48.108;11.448;2023-07-02T01:41:01;1.63;;;1.10;;
19812;SDS011;10066;48.108;11.448;2023-07-02T01:43:27;1.77;;;1.30;;
19812;SDS011;10066;48.108;11.448;2023-07-02T01:45:54;1.87;;;1.67;;
19812;SDS011;10066;48.108;11.448;2023-07-02T01:48:22;2.03;;;1.30;;
19812;SDS011;10066;48.108;11.448;2023-07-02T01:50:49;1.43;;;1.30;;
19812;SDS011;10066;48.108;11.448;2023-07-02T01:53:16;2.80;;;1.30;;
19812;SDS011;10066;48.108;11.448;2023-07-02T01:55:45;1.13;;;1.03;;
19812;SDS011;10066;48.108;11.448;2023-07-02T01:58:11;2.67;;;1.07;;
19812;SDS011;10066;48.108;11.448;2023-07-02T02:00:38;2.67;;;1.10;;
19812;SDS011;10066;48.108;11.448;2023-07-02T02:03:05;2.07;;;1.17;;
19812;SDS011;10066;48.108;11.448;2023-07-02T02:05:32;1.53;;;1.30;;
19812;SDS011;10066;48.108;11.448;2023-07-02T02:08:00;1.50;;;1.20;;
19812;SDS011;10066;48.108;11.448;2023-07-02T02:10:27;2.20;;;1.20;;
19812;SDS011;10066;48.108;11.448;2023-07-02T02:12:55;1.50;;;1.40;;
19812;SDS011;10066;48.108;11.448;2023-07-02T02:15:22;1.70;;;1.20;;
19812;SDS011;10066;48.108;11.448;2023-07-02T02:17:49;2.03;;;1.40;;
19812;SDS011;10066;48.108;11.448;2023-07-02T02:20:16;1.47;;;1.37;;
19812;SDS011;10066;48.108;11.448;2023-07-02T02:22:43;1.97;;;1.43;;
19812;SDS011;10066;48.108;11.448;2023-07-02T02:25:10;1.20;;;1.10;;
19812;SDS011;10066;48.108;11.448;2023-07-02T02:27:37;1.90;;;1.50;;
19812;SDS011;10066;48.108;11.448;2023-07-02T02:30:06;2.03;;;1.70;;
19812;SDS011;10066;48.108;11.448;2023-07-02T02:32:34;2.77;;;1.70;;
19812;SDS011;10066;48.108;11.448;2023-07-02T02:35:02;2.37;;;1.60;;
19812;SDS011;10066;48.108;11.448;2023-07-02T02:37:29;1.93;;;1.57;;
19812;SDS011;10066;48.108;11.448;2023-07-02T02:39:57;2.20;;;1.30;;
19812;SDS011;10066;48.108;11.448;2023-07-02T02:42:24;2.03;;;1.40;;
19812;SDS011;10066;48.108;11.448;2023-07-02T02:44:51;1.43;;;1.33;;
19812;SDS011;10066;48.108;11.448;2023-07-02T02:47:20;1.57;;;1.30;;
19812;SDS011;10066;48.108;11.448;2023-07-02T02:49:47;2.07;;;1.50;;
19812;SDS011;10066;48.108;11.448;2023-07-02T02:52:14;1.70;;;1.30;;
19812;SDS011;10066;48.108;11.448;2023-07-02T02:54:41;1.60;;;1.40;;
19812;SDS011;10066;48.108;11.448;2023-07-02T02:57:08;2.03;;;1.30;;
19812;SDS011;10066;48.108;11.448;2023-07-02T02:59:35;1.20;;;1.10;;
19812;SDS011;10066;48.108;11.448;2023-07-02T03:02:02;1.57;;;1.30;;
19812;SDS011;10066;48.108;11.448;2023-07-02T03:04:31;3.47;;;1.60;;
19812;SDS011;10066;48.108;11.448;2023-07-02T03:06:58;2.60;;;1.30;;
19812;SDS011;10066;48.108;11.448;2023-07-02T03:09:25;1.63;;;1.17;;
19812;SDS011;10066;48.108;11.448;2023-07-02T03:11:52;1.30;;;1.10;;
19812;SDS011;10066;48.108;11.448;2023-07-02T03:14:19;1.67;;;1.20;;
19812;SDS011;10066;48.108;11.448;2023-07-02T03:16:46;3.00;;;1.50;;
19812;SDS011;10066;48.108;11.448;2023-07-02T03:19:13;2.67;;;1.30;;
19812;SDS011;10066;48.108;11.448;2023-07-02T03:21:42;1.50;;;1.30;;
19812;SDS011;10066;48.108;11.448;2023-07-02T03:24:10;1.50;;;1.40;;
19812;SDS011;10066;48.108;11.448;2023-07-02T03:26:38;2.07;;;1.50;;
19812;SDS011;10066;48.108;11.448;2023-07-02T03:29:05;1.93;;;1.73;;
19812;SDS011;10066;48.108;11.448;2023-07-02T03:31:32;17.70;;;2.07;;
19812;SDS011;10066;48.108;11.448;2023-07-02T03:34:01;1.77;;;1.57;;
19812;SDS011;10066;48.108;11.448;2023-07-02T03:36:29;2.47;;;2.10;;
19812;SDS011;10066;48.108;11.448;2023-07-02T03:38:57;4.27;;;2.43;;
19812;SDS011;10066;48.108;11.448;2023-07-02T03:41:24;5.10;;;2.47;;
19812;SDS011;10066;48.108;11.448;2023-07-02T03:43:51;4.10;;;2.40;;
19812;SDS011;10066;48.108;11.448;2023-07-02T03:46:18;4.67;;;2.37;;
19812;SDS011;10066;48.108;11.448;2023-07-02T03:48:45;3.37;;;2.70;;
19812;SDS011;10066;48.108;11.448;2023-07-02T03:51:12;2.73;;;2.30;;
19812;SDS011;10066;48.108;11.448;2023-07-02T03:53:39;4.13;;;2.40;;
19812;SDS011;10066;48.108;11.448;2023-07-02T03:56:07;4.43;;;2.80;;
19812;SDS011;10066;48.108;11.448;2023-07-02T03:58:34;4.43;;;2.43;;
19812;SDS011;10066;48.108;11.448;2023-07-02T04:01:01;4.07;;;2.43;;
19812;SDS011;10066;48.108;11.448;2023-07-02T04:03:28;3.70;;;2.60;;
19812;SDS011;10066;48.108;11.448;2023-07-02T04:05:55;6.60;;;3.00;;
19812;SDS011;10066;48.108;11.448;2023-07-02T04:08:22;4.03;;;2.80;;
19812;SDS011;10066;48.108;11.448;2023-07-02T04:10:50;6.83;;;3.03;;
19812;SDS011;10066;48.108;11.448;2023-07-02T04:13:18;3.30;;;3.00;;
19812;SDS011;10066;48.108;11.448;2023-07-02T04:15:46;4.27;;;3.00;;
19812;SDS011;10066;48.108;11.448;2023-07-02T04:18:13;5.53;;;3.20;;
19812;SDS011;10066;48.108;11.448;2023-07-02T04:20:40;3.97;;;3.10;;
19812;SDS011;10066;48.108;11.448;2023-07-02T04:23:08;5.50;;;2.90;;
19812;SDS011;10066;48.108;11.448;2023-07-02T04:25:35;3.67;;;2.80;;
19812;SDS011;10066;48.108;11.448;2023-07-02T04:28:02;4.63;;;2.73;;
19812;SDS011;10066;48.108;11.448;2023-07-02T04:30:30;3.47;;;2.80;;
19812;SDS011;10066;48.108;11.448;2023-07-02T04:32:57;4.70;;;3.20;;
19812;SDS011;10066;48.108;11.448;2023-07-02T04:35:24;4.20;;;2.87;;
19812;SDS011;10066;48.108;11.448;2023-07-02T04:37:51;3.60;;;3.10;;
19812;SDS011;10066;48.108;11.448;2023-07-02T04:40:18;3.40;;;2.83;;
19812;SDS011;10066;48.108;11.448;2023-07-02T04:42:45;4.07;;;3.10;;
19812;SDS011;10066;48.108;11.448;2023-07-02T04:45:12;6.27;;;3.50;;
19812;SDS011;10066;48.108;11.448;2023-07-02T04:47:43;4.57;;;3.13;;
19812;SDS011;10066;48.108;11.448;2023-07-02T04:50:10;4.67;;;3.10;;
19812;SDS011;10066;48.108;11.448;2023-07-02T04:52:38;3.90;;;3.20;;
19812;SDS011;10066;48.108;11.448;2023-07-02T04:55:05;7.37;;;3.30;;
19812;SDS011;10066;48.108;11.448;2023-07-02T04:57:33;5.43;;;3.37;;
19812;SDS011;10066;48.108;11.448;2023-07-02T04:59:59;4.53;;;3.47;;
19812;SDS011;10066;48.108;11.448;2023-07-02T05:02:27;5.67;;;3.23;;
19812;SDS011;10066;48.108;11.448;2023-07-02T05:04:56;5.20;;;2.70;;
19812;SDS011;10066;48.108;11.448;2023-07-02T05:07:23;4.23;;;3.00;;
19812;SDS011;10066;48.108;11.448;2023-07-02T05:09:50;4.50;;;2.60;;
19812;SDS011;10066;48.108;11.448;2023-07-02T05:12:18;5.83;;;2.90;;
19812;SDS011;10066;48.108;11.448;2023-07-02T05:14:45;4.07;;;3.00;;
19812;SDS011;10066;48.108;11.448;2023-07-02T05:17:15;7.57;;;2.70;;
19812;SDS011;10066;48.108;11.448;2023-07-02T05:19:42;3.83;;;2.67;;
19812;SDS011;10066;48.108;11.448;2023-07-02T05:22:12;3.90;;;2.70;;
19812;SDS011;10066;48.108;11.448;2023-07-02T05:24:39;5.20;;;2.93;;
19812;SDS011;10066;48.108;11.448;2023-07-02T05:27:06;4.47;;;2.63;;
19812;SDS011;10066;48.108;11.448;2023-07-02T05:29:33;4.43;;;3.00;;
19812;SDS011;10066;48.108;11.448;2023-07-02T05:32:00;5.80;;;2.93;;
19812;SDS011;10066;48.108;11.448;2023-07-02T05:34:27;4.40;;;2.57;;
19812;SDS011;10066;48.108;11.448;2023-07-02T05:36:54;4.13;;;2.83;;
19812;SDS011;10066;48.108;11.448;2023-07-02T05:39:22;2.90;;;2.70;;
19812;SDS011;10066;48.108;11.448;2023-07-02T05:41:49;4.73;;;2.90;;
19812;SDS011;10066;48.108;11.448;2023-07-02T05:44:16;5.47;;;2.70;;
19812;SDS011;10066;48.108;11.448;2023-07-02T05:46:43;3.30;;;2.80;;
19812;SDS011;10066;48.108;11.448;2023-07-02T05:49:10;6.77;;;3.07;;
19812;SDS011;10066;48.108;11.448;2023-07-02T05:51:37;4.23;;;2.67;;
19812;SDS011;10066;48.108;11.448;2023-07-02T05:54:04;5.10;;;2.80;;
19812;SDS011;10066;48.108;11.448;2023-07-02T05:56:33;4.13;;;2.47;;
19812;SDS011;10066;48.108;11.448;2023-07-02T05:58:59;4.90;;;2.50;;
19812;SDS011;10066;48.108;11.448;2023-07-02T06:01:26;4.73;;;2.57;;
19812;SDS011;10066;48.108;11.448;2023-07-02T06:03:53;3.43;;;2.50;;
19812;SDS011;10066;48.108;11.448;2023-07-02T06:06:20;5.37;;;2.50;;
19812;SDS011;10066;48.108;11.448;2023-07-02T06:08:49;5.60;;;2.70;;
19812;SDS011;10066;48.108;11.448;2023-07-02T06:11:18;3.10;;;2.40;;
19812;SDS011;10066;48.108;11.448;2023-07-02T06:13:46;5.27;;;2.73;;
19812;SDS011;10066;48.108;11.448;2023-07-02T06:16:13;5.63;;;2.40;;
19812;SDS011;10066;48.108;11.448;2023-07-02T06:18:40;3.17;;;2.30;;
19812;SDS011;10066;48.108;11.448;2023-07-02T06:21:07;4.60;;;2.40;;
19812;SDS011;10066;48.108;11.448;2023-07-02T06:23:41;2.90;;;2.60;;
19812;SDS011;10066;48.108;11.448;2023-07-02T06:26:08;5.93;;;2.67;;
19812;SDS011;10066;48.108;11.448;2023-07-02T06:28:35;4.90;;;2.60;;
19812;SDS011;10066;48.108;11.448;2023-07-02T06:31:03;4.33;;;2.70;;
19812;SDS011;10066;48.108;11.448;2023-07-02T06:33:30;3.07;;;2.40;;
19812;SDS011;10066;48.108;11.448;2023-07-02T06:35:57;3.97;;;2.43;;
19812;SDS011;10066;48.108;11.448;2023-07-02T06:38:24;3.90;;;2.60;;
19812;SDS011;10066;48.108;11.448;2023-07-02T06:40:51;4.00;;;2.30;;
19812;SDS011;10066;48.108;11.448;2023-07-02T06:43:18;3.23;;;2.60;;
19812;SDS011;10066;48.108;11.448;2023-07-02T06:45:45;4.73;;;2.67;;
19812;SDS011;10066;48.108;11.448;2023-07-02T06:48:13;5.13;;;2.50;;
19812;SDS011;10066;48.108;11.448;2023-07-02T06:50:43;3.03;;;2.70;;
19812;SDS011;10066;48.108;11.448;2023-07-02T06:53:11;5.93;;;3.40;;
19812;SDS011;10066;48.108;11.448;2023-07-02T06:55:38;6.00;;;2.70;;
19812;SDS011;10066;48.108;11.448;2023-07-02T06:58:06;6.23;;;3.40;;
19812;SDS011;10066;48.108;11.448;2023-07-02T07:00:33;4.30;;;3.10;;
19812;SDS011;10066;48.108;11.448;2023-07-02T07:03:01;5.17;;;3.33;;
19812;SDS011;10066;48.108;11.448;2023-07-02T07:05:31;4.97;;;3.03;;
19812;SDS011;10066;48.108;11.448;2023-07-02T07:07:58;5.13;;;3.43;;
19812;SDS011;10066;48.108;11.448;2023-07-02T07:10:26;5.03;;;3.07;;
19812;SDS011;10066;48.108;11.448;2023-07-02T07:12:53;4.10;;;3.20;;
19812;SDS011;10066;48.108;11.448;2023-07-02T07:15:20;6.07;;;3.60;;
19812;SDS011;10066;48.108;11.448;2023-07-02T07:17:47;5.83;;;3.40;;
19812;SDS011;10066;48.108;11.448;2023-07-02T07:20:14;5.23;;;3.50;;
19812;SDS011;10066;48.108;11.448;2023-07-02T07:22:42;5.40;;;3.60;;
19812;SDS011;10066;48.108;11.448;2023-07-02T07:25:09;4.03;;;3.50;;
19812;SDS011;10066;48.108;11.448;2023-07-02T07:27:36;4.33;;;3.17;;
19812;SDS011;10066;48.108;11.448;2023-07-02T07:30:04;6.07;;;4.10;;
19812;SDS011;10066;48.108;11.448;2023-07-02T07:32:33;4.63;;;4.00;;
19812;SDS011;10066;48.108;11.448;2023-07-02T07:35:00;5.43;;;3.47;;
19812;SDS011;10066;48.108;11.448;2023-07-02T07:37:27;4.97;;;3.47;;
19812;SDS011;10066;48.108;11.448;2023-07-02T07:39:55;4.37;;;3.80;;
19812;SDS011;10066;48.108;11.448;2023-07-02T07:42:22;6.57;;;4.00;;
19812;SDS011;10066;48.108;11.448;2023-07-02T07:44:49;4.37;;;3.53;;
19812;SDS011;10066;48.108;11.448;2023-07-02T07:47:16;4.60;;;3.20;;
19812;SDS011;10066;48.108;11.448;2023-07-02T07:49:43;5.50;;;4.17;;
19812;SDS011;10066;48.108;11.448;2023-07-02T07:52:11;7.17;;;4.60;;
19812;SDS011;10066;48.108;11.448;2023-07-02T07:54:38;6.43;;;4.07;;
19812;SDS011;10066;48.108;11.448;2023-07-02T07:57:07;5.67;;;4.23;;
19812;SDS011;10066;48.108;11.448;2023-07-02T07:59:34;6.97;;;4.70;;
19812;SDS011;10066;48.108;11.448;2023-07-02T08:02:00;8.33;;;4.33;;
19812;SDS011;10066;48.108;11.448;2023-07-02T08:04:27;7.73;;;4.77;;
19812;SDS011;10066;48.108;11.448;2023-07-02T08:06:54;4.80;;;4.30;;
19812;SDS011;10066;48.108;11.448;2023-07-02T08:09:22;6.00;;;4.90;;
19812;SDS011;10066;48.108;11.448;2023-07-02T08:11:49;6.83;;;5.47;;
19812;SDS011;10066;48.108;11.448;2023-07-02T08:14:18;7.77;;;5.70;;
19812;SDS011;10066;48.108;11.448;2023-07-02T08:16:45;7.47;;;5.70;;
19812;SDS011;10066;48.108;11.448;2023-07-02T08:19:12;7.67;;;5.40;;
19812;SDS011;10066;48.108;11.448;2023-07-02T08:21:39;6.83;;;5.80;;
19812;SDS011;10066;48.108;11.448;2023-07-02T08:24:06;6.27;;;5.23;;
19812;SDS011;10066;48.108;11.448;2023-07-02T08:26:33;7.17;;;4.43;;
19812;SDS011;10066;48.108;11.448;2023-07-02T08:28:59;4.97;;;3.70;;
19812;SDS011;10066;48.108;11.448;2023-07-02T08:31:28;3.57;;;3.20;;
19812;SDS011;10066;48.108;11.448;2023-07-02T08:33:55;4.73;;;3.10;;
19812;SDS011;10066;48.108;11.448;2023-07-02T08:36:22;4.33;;;3.10;;
19812;SDS011;10066;48.108;11.448;2023-07-02T08:38:49;3.03;;;2.73;;
19812;SDS011;10066;48.108;11.448;2023-07-02T08:41:16;3.63;;;2.67;;
19812;SDS011;10066;48.108;11.448;2023-07-02T08:43:43;3.47;;;2.57;;
19812;SDS011;10066;48.108;11.448;2023-07-02T08:46:10;3.00;;;2.57;;
19812;SDS011;10066;48.108;11.448;2023-07-02T08:48:39;2.70;;;2.13;;
19812;SDS011;10066;48.108;11.448;2023-07-02T08:51:06;4.17;;;2.40;;
19812;SDS011;10066;48.108;11.448;2023-07-02T08:53:33;2.67;;;2.43;;
19812;SDS011;10066;48.108;11.448;2023-07-02T08:56:01;3.13;;;2.60;;
19812;SDS011;10066;48.108;11.448;2023-07-02T08:58:29;4.13;;;2.50;;
19812;SDS011;10066;48.108;11.448;2023-07-02T09:01:06;6.57;;;2.70;;
19812;SDS011;10066;48.108;11.448;2023-07-02T09:03:38;2.50;;;2.20;;
19812;SDS011;10066;48.108;11.448;2023-07-02T09:06:07;3.07;;;2.47;;
19812;SDS011;10066;48.108;11.448;2023-07-02T09:08:34;4.17;;;2.57;;
19812;SDS011;10066;48.108;11.448;2023-07-02T09:11:05;2.37;;;2.17;;
19812;SDS011;10066;48.108;11.448;2023-07-02T09:13:42;2.63;;;2.43;;
19812;SDS011;10066;48.108;11.448;2023-07-02T09:16:21;2.67;;;2.47;;
19812;SDS011;10066;48.108;11.448;2023-07-02T09:21:44;2.37;;;2.17;;
19812;SDS011;10066;48.108;11.448;2023-07-02T09:24:12;3.80;;;2.30;;
19812;SDS011;10066;48.108;11.448;2023-07-02T09:26:42;5.37;;;3.00;;
19812;SDS011;10066;48.108;11.448;2023-07-02T09:29:21;3.27;;;2.40;;
19812;SDS011;10066;48.108;11.448;2023-07-02T09:31:48;2.60;;;2.40;;
19812;SDS011;10066;48.108;11.448;2023-07-02T09:34:17;2.30;;;2.10;;
19812;SDS011;10066;48.108;11.448;2023-07-02T09:36:44;3.47;;;2.20;;
19812;SDS011;10066;48.108;11.448;2023-07-02T09:39:11;4.43;;;3.07;;
19812;SDS011;10066;48.108;11.448;2023-07-02T09:41:39;3.83;;;2.50;;
19812;SDS011;10066;48.108;11.448;2023-07-02T09:44:07;2.33;;;2.13;;
19812;SDS011;10066;48.108;11.448;2023-07-02T09:46:36;2.83;;;2.60;;
19812;SDS011;10066;48.108;11.448;2023-07-02T09:49:07;2.90;;;2.60;;
19812;SDS011;10066;48.108;11.448;2023-07-02T09:51:38;3.73;;;2.90;;
19812;SDS011;10066;48.108;11.448;2023-07-02T09:54:06;3.00;;;2.70;;
19812;SDS011;10066;48.108;11.448;2023-07-02T09:56:33;3.70;;;2.60;;
19812;SDS011;10066;48.108;11.448;2023-07-02T09:59:00;2.50;;;2.13;;
19812;SDS011;10066;48.108;11.448;2023-07-02T10:01:27;4.27;;;2.73;;
19812;SDS011;10066;48.108;11.448;2023-07-02T10:03:54;2.90;;;2.60;;
19812;SDS011;10066;48.108;11.448;2023-07-02T10:06:21;3.83;;;2.93;;
19812;SDS011;10066;48.108;11.448;2023-07-02T10:08:55;3.57;;;2.57;;
19812;SDS011;10066;48.108;11.448;2023-07-02T10:11:32;4.60;;;3.10;;
19812;SDS011;10066;48.108;11.448;2023-07-02T10:14:00;3.57;;;3.03;;
19812;SDS011;10066;48.108;11.448;2023-07-02T10:16:27;3.53;;;3.03;;
19812;SDS011;10066;48.108;11.448;2023-07-02T10:19:07;3.40;;;2.93;;
19812;SDS011;10066;48.108;11.448;2023-07-02T10:21:34;6.63;;;3.50;;
19812;SDS011;10066;48.108;11.448;2023-07-02T10:24:10;7.20;;;3.67;;
19812;SDS011;10066;48.108;11.448;2023-07-02T10:26:37;4.07;;;3.27;;
19812;SDS011;10066;48.108;11.448;2023-07-02T10:29:05;5.30;;;3.30;;
19812;SDS011;10066;48.108;11.448;2023-07-02T10:31:33;4.83;;;3.33;;
19812;SDS011;10066;48.108;11.448;2023-07-02T10:34:00;3.80;;;3.20;;
19812;SDS011;10066;48.108;11.448;2023-07-02T10:36:27;8.67;;;3.37;;
19812;SDS011;10066;48.108;11.448;2023-07-02T10:39:00;5.57;;;3.77;;
19812;SDS011;10066;48.108;11.448;2023-07-02T10:41:31;4.93;;;3.40;;
19812;SDS011;10066;48.108;11.448;2023-07-02T10:44:05;5.30;;;3.37;;
19812;SDS011;10066;48.108;11.448;2023-07-02T10:46:33;6.30;;;4.23;;
19812;SDS011;10066;48.108;11.448;2023-07-02T10:49:00;7.30;;;4.20;;
19812;SDS011;10066;48.108;11.448;2023-07-02T10:51:27;6.77;;;4.10;;
19812;SDS011;10066;48.108;11.448;2023-07-02T10:53:57;5.63;;;4.27;;
19812;SDS011;10066;48.108;11.448;2023-07-02T10:56:25;8.63;;;4.70;;
19812;SDS011;10066;48.108;11.448;2023-07-02T10:58:54;7.90;;;4.47;;
19812;SDS011;10066;48.108;11.448;2023-07-02T11:01:21;8.97;;;4.60;;
19812;SDS011;10066;48.108;11.448;2023-07-02T11:03:55;8.93;;;4.83;;
19812;SDS011;10066;48.108;11.448;2023-07-02T11:06:23;6.03;;;4.70;;
19812;SDS011;10066;48.108;11.448;2023-07-02T11:08:50;7.43;;;4.70;;
19812;SDS011;10066;48.108;11.448;2023-07-02T11:11:17;7.23;;;5.30;;
19812;SDS011;10066;48.108;11.448;2023-07-02T11:13:44;7.87;;;5.73;;
19812;SDS011;10066;48.108;11.448;2023-07-02T11:16:19;7.73;;;5.63;;
19812;SDS011;10066;48.108;11.448;2023-07-02T11:18:50;6.73;;;5.30;;
19812;SDS011;10066;48.108;11.448;2023-07-02T11:21:18;10.67;;;6.27;;
19812;SDS011;10066;48.108;11.448;2023-07-02T11:23:45;10.00;;;6.20;;
19812;SDS011;10066;48.108;11.448;2023-07-02T11:26:12;7.67;;;5.80;;
19812;SDS011;10066;48.108;11.448;2023-07-02T11:28:47;9.07;;;6.37;;
19812;SDS011;10066;48.108;11.448;2023-07-02T11:31:25;9.33;;;6.70;;
19812;SDS011;10066;48.108;11.448;2023-07-02T11:33:53;10.43;;;6.90;;
19812;SDS011;10066;48.108;11.448;2023-07-02T11:36:20;7.50;;;6.10;;
19812;SDS011;10066;48.108;11.448;2023-07-02T11:38:49;9.47;;;6.53;;
19812;SDS011;10066;48.108;11.448;2023-07-02T11:41:17;8.20;;;6.27;;
19812;SDS011;10066;48.108;11.448;2023-07-02T11:43:45;7.73;;;5.97;;
19812;SDS011;10066;48.108;11.448;2023-07-02T11:46:12;8.70;;;6.33;;
19812;SDS011;10066;48.108;11.448;2023-07-02T11:48:41;9.17;;;6.80;;
19812;SDS011;10066;48.108;11.448;2023-07-02T11:51:08;10.27;;;6.60;;
19812;SDS011;10066;48.108;11.448;2023-07-02T11:53:35;8.40;;;6.87;;
19812;SDS011;10066;48.108;11.448;2023-07-02T11:56:02;9.80;;;6.17;;
19812;SDS011;10066;48.108;11.448;2023-07-02T11:58:29;11.43;;;7.00;;
19812;SDS011;10066;48.108;11.448;2023-07-02T12:00:56;8.70;;;6.70;;
19812;SDS011;10066;48.108;11.448;2023-07-02T12:03:24;8.53;;;6.40;;
19812;SDS011;10066;48.108;11.448;2023-07-02T12:05:53;9.80;;;6.93;;
19812;SDS011;10066;48.108;11.448;2023-07-02T12:08:19;8.77;;;6.60;;
19812;SDS011;10066;48.108;11.448;2023-07-02T12:10:47;8.63;;;6.70;;
19812;SDS011;10066;48.108;11.448;2023-07-02T12:13:14;10.77;;;7.17;;
19812;SDS011;10066;48.108;11.448;2023-07-02T12:15:41;11.20;;;7.20;;
19812;SDS011;10066;48.108;11.448;2023-07-02T12:18:08;10.17;;;7.40;;
19812;SDS011;10066;48.108;11.448;2023-07-02T12:20:35;9.50;;;6.83;;
19812;SDS011;10066;48.108;11.448;2023-07-02T12:23:04;11.17;;;6.83;;
19812;SDS011;10066;48.108;11.448;2023-07-02T12:25:33;9.57;;;7.40;;
19812;SDS011;10066;48.108;11.448;2023-07-02T12:28:01;9.70;;;6.43;;
19812;SDS011;10066;48.108;11.448;2023-07-02T12:30:28;11.37;;;7.70;;
19812;SDS011;10066;48.108;11.448;2023-07-02T12:32:55;10.20;;;7.13;;
19812;SDS011;10066;48.108;11.448;2023-07-02T12:35:22;10.83;;;7.83;;
19812;SDS011;10066;48.108;11.448;2023-07-02T12:37:50;11.23;;;7.30;;
19812;SDS011;10066;48.108;11.448;2023-07-02T12:40:19;10.53;;;7.87;;
19812;SDS011;10066;48.108;11.448;2023-07-02T12:42:47;10.70;;;8.20;;
19812;SDS011;10066;48.108;11.448;2023-07-02T12:45:15;13.07;;;8.43;;
19812;SDS011;10066;48.108;11.448;2023-07-02T12:47:42;12.47;;;8.23;;
19812;SDS011;10066;48.108;11.448;2023-07-02T12:50:10;13.63;;;8.83;;
19812;SDS011;10066;48.108;11.448;2023-07-02T12:52:37;11.90;;;8.10;;
19812;SDS011;10066;48.108;11.448;2023-07-02T12:55:04;14.77;;;9.17;;
19812;SDS011;10066;48.108;11.448;2023-07-02T12:57:33;13.97;;;9.67;;
19812;SDS011;10066;48.108;11.448;2023-07-02T13:00:00;13.37;;;9.80;;
19812;SDS011;10066;48.108;11.448;2023-07-02T13:02:31;12.53;;;9.77;;
19812;SDS011;10066;48.108;11.448;2023-07-02T13:04:58;14.93;;;9.60;;
19812;SDS011;10066;48.108;11.448;2023-07-02T13:07:25;13.90;;;9.43;;
19812;SDS011;10066;48.108;11.448;2023-07-02T13:09:55;12.73;;;9.50;;
19812;SDS011;10066;48.108;11.448;2023-07-02T13:12:22;12.33;;;9.83;;
19812;SDS011;10066;48.108;11.448;2023-07-02T13:14:50;12.53;;;9.23;;
19812;SDS011;10066;48.108;11.448;2023-07-02T13:17:17;15.17;;;9.77;;
19812;SDS011;10066;48.108;11.448;2023-07-02T13:19:44;15.03;;;10.43;;
19812;SDS011;10066;48.108;11.448;2023-07-02T13:22:11;16.47;;;10.40;;
19812;SDS011;10066;48.108;11.448;2023-07-02T13:24:39;14.50;;;9.93;;
19812;SDS011;10066;48.108;11.448;2023-07-02T13:27:08;16.80;;;11.40;;
19812;SDS011;10066;48.108;11.448;2023-07-02T13:29:40;14.47;;;10.30;;
19812;SDS011;10066;48.108;11.448;2023-07-02T13:32:09;15.30;;;10.83;;
19812;SDS011;10066;48.108;11.448;2023-07-02T13:34:36;11.53;;;9.57;;
19812;SDS011;10066;48.108;11.448;2023-07-02T13:37:03;17.67;;;10.20;;
19812;SDS011;10066;48.108;11.448;2023-07-02T13:39:32;14.50;;;10.40;;
19812;SDS011;10066;48.108;11.448;2023-07-02T13:41:58;13.90;;;10.03;;
19812;SDS011;10066;48.108;11.448;2023-07-02T13:44:25;13.93;;;10.83;;
19812;SDS011;10066;48.108;11.448;2023-07-02T13:46:52;12.77;;;10.23;;
19812;SDS011;10066;48.108;11.448;2023-07-02T13:49:21;13.67;;;10.57;;
19812;SDS011;10066;48.108;11.448;2023-07-02T13:51:48;13.40;;;10.00;;
19812;SDS011;10066;48.108;11.448;2023-07-02T13:54:16;17.23;;;10.30;;
19812;SDS011;10066;48.108;11.448;2023-07-02T13:56:44;14.47;;;10.50;;
19812;SDS011;10066;48.108;11.448;2023-07-02T13:59:13;13.60;;;10.60;;
19812;SDS011;10066;48.108;11.448;2023-07-02T14:01:40;14.23;;;10.63;;
19812;SDS011;10066;48.108;11.448;2023-07-02T14:04:07;14.60;;;10.90;;
19812;SDS011;10066;48.108;11.448;2023-07-02T14:06:34;15.73;;;11.40;;
19812;SDS011;10066;48.108;11.448;2023-07-02T14:09:02;14.07;;;11.17;;
19812;SDS011;10066;48.108;11.448;2023-07-02T14:11:31;13.80;;;10.57;;
19812;SDS011;10066;48.108;11.448;2023-07-02T14:13:59;14.07;;;10.33;;
19812;SDS011;10066;48.108;11.448;2023-07-02T14:16:27;16.17;;;11.50;;
19812;SDS011;10066;48.108;11.448;2023-07-02T14:18:54;13.80;;;10.70;;
19812;SDS011;10066;48.108;11.448;2023-07-02T14:21:21;15.50;;;11.30;;
19812;SDS011;10066;48.108;11.448;2023-07-02T14:23:49;14.30;;;11.00;;
19812;SDS011;10066;48.108;11.448;2023-07-02T14:26:16;15.60;;;11.57;;
19812;SDS011;10066;48.108;11.448;2023-07-02T14:28:44;16.17;;;11.93;;
19812;SDS011;10066;48.108;11.448;2023-07-02T14:31:11;18.60;;;12.70;;
19812;SDS011;10066;48.108;11.448;2023-07-02T14:33:39;14.10;;;11.57;;
19812;SDS011;10066;48.108;11.448;2023-07-02T14:36:06;20.17;;;11.57;;
19812;SDS011;10066;48.108;11.448;2023-07-02T14:38:34;18.27;;;12.30;;